createdAt,value
2023-04-18T00:01:49.052Z,29.80
2023-04-18T00:04:19.876Z,25.70
2023-04-18T00:06:51.481Z,22.40
2023-04-18T00:09:21.224Z,27.02
2023-04-18T00:11:50.919Z,23.85
2023-04-18T00:14:22.241Z,26.23
2023-04-18T00:16:53.154Z,22.80
2023-04-18T00:19:23.119Z,23.13
2023-04-18T00:21:55.427Z,29.75
2023-04-18T00:24:25.000Z,24.55
2023-04-18T00:26:54.589Z,25.92
2023-04-18T00:29:24.215Z,24.13
2023-04-18T00:31:53.838Z,35.13
2023-04-18T00:34:23.451Z,31.67
2023-04-18T00:36:53.009Z,29.13
2023-04-18T00:39:22.568Z,23.38
2023-04-18T00:41:52.192Z,18.17
2023-04-18T00:44:21.843Z,27.92
2023-04-18T00:46:51.444Z,21.05
2023-04-18T00:49:21.202Z,25.52
2023-04-18T00:51:51.325Z,25.75
2023-04-18T00:54:22.035Z,20.05
2023-04-18T00:56:51.697Z,31.17
2023-04-18T00:59:21.723Z,23.40
2023-04-18T01:01:51.346Z,22.00
2023-04-18T01:04:21.100Z,23.55
2023-04-18T01:06:50.854Z,22.92
2023-04-18T01:09:21.947Z,16.50
2023-04-18T01:11:51.740Z,19.00
2023-04-18T01:14:22.264Z,23.17
2023-04-18T01:16:51.887Z,23.95
2023-04-18T01:19:21.724Z,23.35
2023-04-18T01:21:51.389Z,18.33
2023-04-18T01:24:20.965Z,21.58
2023-04-18T01:26:50.600Z,22.85
2023-04-18T01:29:20.216Z,15.13
2023-04-18T01:31:49.979Z,23.50
2023-04-18T01:34:20.375Z,18.48
2023-04-18T01:36:50.058Z,15.75
2023-04-18T01:39:19.938Z,18.17
2023-04-18T01:41:49.531Z,18.90
2023-04-18T01:44:19.175Z,22.20
2023-04-18T01:46:48.799Z,10.27
2023-04-18T01:49:18.900Z,17.15
2023-04-18T01:51:48.580Z,14.57
2023-04-18T01:54:18.169Z,13.85
2023-04-18T01:56:47.824Z,12.02
2023-04-18T01:59:19.874Z,14.60
2023-04-18T02:01:49.526Z,10.63
2023-04-18T02:04:19.220Z,15.40
2023-04-18T02:06:48.793Z,10.18
2023-04-18T02:09:18.383Z,15.57
2023-04-18T02:11:47.999Z,12.60
2023-04-18T02:14:17.695Z,11.63
2023-04-18T02:16:47.428Z,13.43
2023-04-18T02:19:17.068Z,14.23
2023-04-18T02:21:46.721Z,13.35
2023-04-18T02:24:16.344Z,13.38
2023-04-18T02:26:48.717Z,9.75
2023-04-18T02:29:18.518Z,13.48
2023-04-18T02:31:48.384Z,11.00
2023-04-18T02:34:18.110Z,10.95
2023-04-18T02:36:48.778Z,11.48
2023-04-18T02:39:18.360Z,14.13
2023-04-18T02:41:47.968Z,15.30
2023-04-18T02:44:18.617Z,11.93
2023-04-18T02:46:48.264Z,10.40
2023-04-18T02:49:17.880Z,9.52
2023-04-18T02:51:47.485Z,9.30
2023-04-18T02:54:17.161Z,14.05
2023-04-18T02:56:46.793Z,13.48
2023-04-18T02:59:16.500Z,10.45
2023-04-18T03:01:46.530Z,10.60
2023-04-18T03:04:16.313Z,13.55
2023-04-18T03:06:46.161Z,12.88
2023-04-18T03:09:15.977Z,8.32
2023-04-18T03:11:45.930Z,9.98
2023-04-18T03:14:15.643Z,9.57
2023-04-18T03:16:45.316Z,8.30
2023-04-18T03:19:14.904Z,8.45
2023-04-18T03:21:44.475Z,8.40
2023-04-18T03:24:14.351Z,5.13
2023-04-18T03:26:44.117Z,8.60
2023-04-18T03:29:13.711Z,11.48
2023-04-18T03:31:43.575Z,9.55
2023-04-18T03:34:13.612Z,9.73
2023-04-18T03:36:44.504Z,7.03
2023-04-18T03:39:15.462Z,6.70
2023-04-18T03:41:45.097Z,10.32
2023-04-18T03:44:14.985Z,10.18
2023-04-18T03:46:44.996Z,12.00
2023-04-18T03:49:14.756Z,7.43
2023-04-18T03:51:52.412Z,6.95
2023-04-18T03:54:22.125Z,8.25
2023-04-18T03:56:51.907Z,5.28
2023-04-18T03:59:21.517Z,7.68
2023-04-18T04:01:51.156Z,9.30
2023-04-18T04:04:21.164Z,12.85
2023-04-18T04:06:50.796Z,11.50
2023-04-18T04:09:20.491Z,7.93
2023-04-18T04:11:50.085Z,8.88
2023-04-18T04:14:19.652Z,9.70
2023-04-18T04:16:49.366Z,7.45
2023-04-18T04:19:18.999Z,7.72
2023-04-18T04:21:48.558Z,5.50
2023-04-18T04:24:18.440Z,8.23
2023-04-18T04:26:48.187Z,5.13
2023-04-18T04:29:17.894Z,7.75
2023-04-18T04:31:47.634Z,8.45
2023-04-18T04:34:18.170Z,8.75
2023-04-18T04:36:48.269Z,5.40
2023-04-18T04:39:18.941Z,5.80
2023-04-18T04:41:48.725Z,9.05
2023-04-18T04:44:19.164Z,5.00
2023-04-18T04:46:49.419Z,6.65
2023-04-18T04:49:18.987Z,4.88
2023-04-18T04:51:48.601Z,7.00
2023-04-18T04:54:20.114Z,7.45
2023-04-18T04:56:49.794Z,6.63
2023-04-18T04:59:19.432Z,10.20
2023-04-18T05:01:49.253Z,5.22
2023-04-18T05:04:19.555Z,6.63
2023-04-18T05:06:49.603Z,4.65
2023-04-18T05:09:19.237Z,7.78
2023-04-18T05:11:50.967Z,6.70
2023-04-18T05:14:22.244Z,6.40
2023-04-18T05:16:51.890Z,6.82
2023-04-18T05:19:21.547Z,6.93
2023-04-18T05:21:51.217Z,6.65
2023-04-18T05:24:21.140Z,6.50
2023-04-18T05:26:50.795Z,7.82
2023-04-18T05:29:20.435Z,6.15
2023-04-18T05:31:50.123Z,7.72
2023-04-18T05:34:19.795Z,5.43
2023-04-18T05:36:50.035Z,6.07
2023-04-18T05:39:19.662Z,6.90
2023-04-18T05:41:49.341Z,6.28
2023-04-18T05:44:19.746Z,6.25
2023-04-18T05:46:52.809Z,6.07
2023-04-18T05:49:22.742Z,7.35
2023-04-18T05:51:54.469Z,7.65
2023-04-18T05:54:24.053Z,7.05
2023-04-18T05:56:54.105Z,9.98
2023-04-18T05:59:23.682Z,9.88
2023-04-18T06:01:53.330Z,6.82
2023-04-18T06:04:23.542Z,8.10
2023-04-18T06:06:54.167Z,12.02
2023-04-18T06:09:23.798Z,9.68
2023-04-18T06:11:55.828Z,10.13
2023-04-18T06:14:25.991Z,6.55
2023-04-18T06:16:55.733Z,9.55
2023-04-18T06:19:25.320Z,10.20
2023-04-18T06:21:55.297Z,13.63
2023-04-18T06:24:25.352Z,8.13
2023-04-18T06:26:57.179Z,10.80
2023-04-18T06:29:29.580Z,13.30
2023-04-18T06:31:59.374Z,12.27
2023-04-18T06:34:29.120Z,10.80
2023-04-18T06:36:58.781Z,11.57
2023-04-18T06:39:29.476Z,9.40
2023-04-18T06:42:00.056Z,11.40
2023-04-18T06:44:29.645Z,13.10
2023-04-18T06:46:59.294Z,12.77
2023-04-18T06:49:28.839Z,13.13
2023-04-18T06:51:58.436Z,11.07
2023-04-18T06:54:28.040Z,16.00
2023-04-18T06:56:57.642Z,8.00
2023-04-18T06:59:27.297Z,11.07
2023-04-18T07:01:56.872Z,14.43
2023-04-18T07:04:26.707Z,10.02
2023-04-18T07:06:56.397Z,11.32
2023-04-18T07:09:26.136Z,12.65
2023-04-18T07:11:55.758Z,17.15
2023-04-18T07:14:26.977Z,17.70
2023-04-18T07:16:56.642Z,12.95
2023-04-18T07:19:26.293Z,15.68
2023-04-18T07:21:57.439Z,13.25
2023-04-18T07:24:27.115Z,17.92
2023-04-18T07:26:56.930Z,14.15
2023-04-18T07:29:26.529Z,11.55
2023-04-18T07:31:56.238Z,12.65
2023-04-18T07:34:25.856Z,15.10
2023-04-18T07:36:55.464Z,13.48
2023-04-18T07:39:25.502Z,12.70
2023-04-18T07:41:55.112Z,10.95
2023-04-18T07:44:26.741Z,12.57
2023-04-18T07:46:56.376Z,11.07
2023-04-18T07:49:25.954Z,10.02
2023-04-18T07:51:55.556Z,11.77
2023-04-18T07:54:25.168Z,9.93
2023-04-18T07:56:54.734Z,12.98
2023-04-18T07:59:24.420Z,12.68
2023-04-18T08:01:54.012Z,11.32
2023-04-18T08:04:23.808Z,13.52
2023-04-18T08:06:53.675Z,13.48
2023-04-18T08:09:23.350Z,14.43
2023-04-18T08:11:52.930Z,12.77
2023-04-18T08:14:22.657Z,11.68
2023-04-18T08:16:52.299Z,10.35
2023-04-18T08:19:21.962Z,9.70
2023-04-18T08:21:53.716Z,11.52
2023-04-18T08:24:23.468Z,14.68
2023-04-18T08:26:53.114Z,12.23
2023-04-18T08:29:22.680Z,11.10
2023-04-18T08:31:52.354Z,15.10
2023-04-18T08:34:21.999Z,17.98
2023-04-18T08:36:53.300Z,14.90
2023-04-18T08:39:24.203Z,18.58
2023-04-18T08:42:01.007Z,14.93
2023-04-18T08:44:31.187Z,13.27
2023-04-18T08:47:01.646Z,17.45
2023-04-18T08:49:32.891Z,18.67
2023-04-18T08:52:03.314Z,15.98
2023-04-18T08:54:33.464Z,13.30
2023-04-18T08:57:10.245Z,13.13
2023-04-18T08:59:40.133Z,13.02
2023-04-18T09:02:11.734Z,11.80
2023-04-18T09:04:46.305Z,13.85
2023-04-18T09:07:19.763Z,21.88
2023-04-18T09:09:51.776Z,14.40
2023-04-18T09:12:26.973Z,14.45
2023-04-18T09:15:18.091Z,13.27
2023-04-18T09:17:54.690Z,14.45
2023-04-18T09:20:39.074Z,21.75
2023-04-18T09:23:16.031Z,14.75
2023-04-18T09:25:48.019Z,15.10
2023-04-18T09:28:30.372Z,18.13
2023-04-18T09:31:11.866Z,15.02
2023-04-18T09:33:47.840Z,16.70
2023-04-18T09:36:23.045Z,20.25
2023-04-18T09:38:56.614Z,17.77
2023-04-18T09:41:27.194Z,17.45
2023-04-18T09:44:15.296Z,16.95
2023-04-18T09:46:47.846Z,20.38
2023-04-18T09:49:18.270Z,11.52
2023-04-18T09:51:48.844Z,16.55
2023-04-18T09:54:19.827Z,15.45
2023-04-18T09:56:52.434Z,16.73
2023-04-18T10:00:00.090Z,16.65
2023-04-18T10:02:36.571Z,15.07
2023-04-18T10:05:09.751Z,14.02
2023-04-18T10:07:40.288Z,17.75
2023-04-18T10:10:10.473Z,16.73
2023-04-18T10:12:41.063Z,20.17
2023-04-18T10:15:13.165Z,14.20
2023-04-18T10:18:02.832Z,16.38
2023-04-18T10:20:36.436Z,17.85
2023-04-18T10:23:33.615Z,13.88
2023-04-18T10:26:04.321Z,15.93
2023-04-18T10:28:55.997Z,14.00
2023-04-18T10:31:27.456Z,17.63
2023-04-18T10:34:05.668Z,18.65
2023-04-18T10:36:35.930Z,23.70
2023-04-18T10:39:23.865Z,14.55
2023-04-18T10:41:54.006Z,12.82
2023-04-18T10:44:24.786Z,13.57
2023-04-18T10:46:54.339Z,17.58
2023-04-18T10:49:35.738Z,15.73
2023-04-18T10:52:08.823Z,17.77
2023-04-18T10:55:20.735Z,26.60
2023-04-18T10:57:52.976Z,14.80
2023-04-18T11:00:24.734Z,16.83
2023-04-18T11:02:59.252Z,16.83
2023-04-18T11:05:31.302Z,14.43
2023-04-18T11:08:00.800Z,16.65
2023-04-18T11:10:30.998Z,13.27
2023-04-18T11:13:05.959Z,19.05
2023-04-18T11:15:41.298Z,16.05
2023-04-18T11:18:12.193Z,16.27
2023-04-18T11:20:48.568Z,17.00
2023-04-18T11:23:27.341Z,21.35
2023-04-18T11:25:58.207Z,23.25
2023-04-18T11:28:28.657Z,19.85
2023-04-18T11:31:01.662Z,20.05
2023-04-18T11:33:31.982Z,18.63
2023-04-18T11:36:01.829Z,18.40
2023-04-18T11:38:32.538Z,16.30
2023-04-18T11:41:04.968Z,17.02
2023-04-18T11:43:34.572Z,20.48
2023-04-18T11:46:04.205Z,19.70
2023-04-18T11:48:44.413Z,22.52
2023-04-18T11:51:37.286Z,19.23
2023-04-18T11:54:07.268Z,21.83
2023-04-18T11:56:37.028Z,18.23
2023-04-18T11:59:12.589Z,24.20
2023-04-18T12:01:42.329Z,23.17
2023-04-18T12:04:12.164Z,21.45
2023-04-18T12:06:52.575Z,21.48
2023-04-18T12:09:25.924Z,20.55
2023-04-18T12:12:04.231Z,20.40
2023-04-18T12:14:33.907Z,29.27
2023-04-18T12:17:05.962Z,18.67
2023-04-18T12:19:35.773Z,22.75
2023-04-18T12:22:09.430Z,21.50
2023-04-18T12:27:09.117Z,27.20
2023-04-18T12:29:38.689Z,25.55
2023-04-18T12:32:08.350Z,25.20
2023-04-18T12:34:37.899Z,24.30
2023-04-18T12:37:07.492Z,32.20
2023-04-18T12:39:37.223Z,25.08
2023-04-18T12:42:06.902Z,31.23
2023-04-18T12:44:37.420Z,23.30
2023-04-18T12:47:07.112Z,25.10
2023-04-18T12:49:36.766Z,25.25
2023-04-18T12:52:06.437Z,25.73
2023-04-18T12:54:37.975Z,22.92
2023-04-18T12:57:07.936Z,24.42
2023-04-18T12:59:37.644Z,27.50
2023-04-18T13:02:07.261Z,40.45
2023-04-18T13:04:37.051Z,25.55
2023-04-18T13:07:07.057Z,27.20
2023-04-18T13:09:36.735Z,27.92
2023-04-18T13:12:06.493Z,23.40
2023-04-18T13:14:36.156Z,27.75
2023-04-18T13:17:05.768Z,23.65
2023-04-18T13:19:35.397Z,26.33
2023-04-18T13:22:06.166Z,24.73
2023-04-18T13:24:35.777Z,22.52
2023-04-18T13:27:11.787Z,22.27
2023-04-18T13:29:42.749Z,27.13
2023-04-18T13:32:12.477Z,28.60
2023-04-18T13:34:46.280Z,31.58
2023-04-18T13:37:17.382Z,25.42
2023-04-18T13:39:46.995Z,25.52
2023-04-18T13:42:16.566Z,25.25
2023-04-18T13:44:46.201Z,28.42
2023-04-18T13:47:16.168Z,30.20
2023-04-18T13:49:45.717Z,26.50
2023-04-18T13:52:15.344Z,32.70
2023-04-18T13:54:45.028Z,30.23
2023-04-18T13:57:14.869Z,24.52
2023-04-18T13:59:44.628Z,29.00
2023-04-18T14:02:14.380Z,31.27
2023-04-18T14:04:44.390Z,37.35
2023-04-18T14:07:14.204Z,27.05
2023-04-18T14:09:43.851Z,31.60
2023-04-18T14:12:13.515Z,29.60
2023-04-18T14:14:43.072Z,27.92
2023-04-18T14:17:12.895Z,26.90
2023-04-18T14:19:43.004Z,38.85
2023-04-18T14:22:12.688Z,27.02
2023-04-18T14:24:42.261Z,37.58
2023-04-18T14:27:12.191Z,28.05
2023-04-18T14:29:41.748Z,34.72
2023-04-18T14:32:11.330Z,29.50
2023-04-18T14:34:40.889Z,29.10
2023-04-18T14:37:10.519Z,32.65
2023-04-18T14:39:40.099Z,31.40
2023-04-18T14:42:09.690Z,41.17
2023-04-18T14:44:39.341Z,33.97
2023-04-18T14:47:08.945Z,31.13
2023-04-18T14:49:38.675Z,32.85
2023-04-18T14:52:08.251Z,38.17
2023-04-18T14:54:38.396Z,30.92
2023-04-18T14:57:09.788Z,32.15
2023-04-18T14:59:39.621Z,34.75
2023-04-18T15:02:09.724Z,38.55
2023-04-18T15:04:39.480Z,32.85
2023-04-18T15:07:09.683Z,33.40
2023-04-18T15:09:40.315Z,35.17
2023-04-18T15:12:10.119Z,35.22
2023-04-18T15:14:39.796Z,33.75
2023-04-18T15:17:09.323Z,32.38
2023-04-18T15:19:38.912Z,33.03
2023-04-18T15:22:08.555Z,42.90
2023-04-18T15:24:38.791Z,42.97
2023-04-18T15:27:09.284Z,42.78
2023-04-18T15:29:39.745Z,35.88
2023-04-18T15:32:09.552Z,48.58
2023-04-18T15:34:39.137Z,29.50
2023-04-18T15:37:08.764Z,39.10
2023-04-18T15:39:40.180Z,38.85
2023-04-18T15:42:09.736Z,41.35
2023-04-18T15:44:39.306Z,30.38
2023-04-18T15:47:09.259Z,29.30
2023-04-18T15:49:38.844Z,37.60
2023-04-18T15:52:08.455Z,33.58
2023-04-18T15:54:38.071Z,41.25
2023-04-18T15:57:07.691Z,40.30
2023-04-18T15:59:37.760Z,40.85
2023-04-18T16:02:08.145Z,47.15
2023-04-18T16:04:37.837Z,34.42
2023-04-18T16:07:07.950Z,27.70
2023-04-18T16:09:37.855Z,25.20
2023-04-18T16:12:08.853Z,24.92
2023-04-18T16:14:38.423Z,39.90
2023-04-18T16:17:07.970Z,27.25
2023-04-18T16:19:39.894Z,25.13
2023-04-18T16:22:09.424Z,29.70
2023-04-18T16:24:40.400Z,23.17
2023-04-18T16:27:11.214Z,24.15
2023-04-18T16:29:40.898Z,27.17
2023-04-18T16:32:10.588Z,25.63
2023-04-18T16:34:40.224Z,34.75
2023-04-18T16:37:09.872Z,33.35
2023-04-18T16:39:39.526Z,34.65
2023-04-18T16:42:09.096Z,26.33
2023-04-18T16:44:38.755Z,24.92
2023-04-18T16:47:09.760Z,27.23
2023-04-18T16:49:39.411Z,23.33
2023-04-18T16:52:08.993Z,27.02
2023-04-18T16:54:38.563Z,25.05
2023-04-18T16:57:08.245Z,27.75
2023-04-18T16:59:37.913Z,36.88
2023-04-18T17:02:07.855Z,27.35
2023-04-18T17:04:38.463Z,29.45
2023-04-18T17:07:08.238Z,26.65
2023-04-18T17:09:37.770Z,25.58
2023-04-18T17:12:07.577Z,31.88
2023-04-18T17:14:38.648Z,24.63
2023-04-18T17:17:08.665Z,21.23
2023-04-18T17:19:38.386Z,22.23
2023-04-18T17:22:08.155Z,24.92
2023-04-18T17:24:37.836Z,19.67
2023-04-18T17:27:07.403Z,20.77
2023-04-18T17:29:37.310Z,24.05
2023-04-18T17:32:07.458Z,23.10
2023-04-18T17:34:37.295Z,23.73
2023-04-18T17:37:07.724Z,20.42
2023-04-18T17:39:37.360Z,27.33
2023-04-18T17:42:07.063Z,32.90
2023-04-18T17:44:37.697Z,25.88
2023-04-18T17:47:08.183Z,27.67
2023-04-18T17:49:37.930Z,22.17
2023-04-18T17:52:07.619Z,23.85
2023-04-18T17:54:37.298Z,28.05
2023-04-18T17:57:06.911Z,24.73
2023-04-18T17:59:39.161Z,27.10
2023-04-18T18:02:08.981Z,24.55
2023-04-18T18:04:38.891Z,21.65
2023-04-18T18:07:08.870Z,20.60
2023-04-18T18:09:38.644Z,22.13
2023-04-18T18:12:08.397Z,26.58
2023-04-18T18:14:38.156Z,28.25
2023-04-18T18:17:08.085Z,25.95
2023-04-18T18:19:40.633Z,26.73
2023-04-18T18:22:11.018Z,25.67
2023-04-18T18:24:40.860Z,22.80
2023-04-18T18:27:10.928Z,26.17
2023-04-18T18:29:40.482Z,28.35
2023-04-18T18:32:10.055Z,29.55
2023-04-18T18:34:39.612Z,27.52
2023-04-18T18:37:09.184Z,28.55
2023-04-18T18:39:38.889Z,28.85
2023-04-18T18:42:08.456Z,30.73
2023-04-18T18:44:38.217Z,30.65
2023-04-18T18:47:07.814Z,36.47
2023-04-18T18:49:37.910Z,33.25
2023-04-18T18:52:07.607Z,31.48
2023-04-18T18:54:37.332Z,33.45
2023-04-18T18:57:07.069Z,30.00
2023-04-18T18:59:36.718Z,22.15
2023-04-18T19:02:06.682Z,32.72
2023-04-18T19:04:36.596Z,27.20
2023-04-18T19:07:07.404Z,24.92
2023-04-18T19:09:38.411Z,28.45
2023-04-18T19:12:08.441Z,30.08
2023-04-18T19:14:38.008Z,32.47
2023-04-18T19:17:07.566Z,29.67
2023-04-18T19:19:37.708Z,31.98
2023-04-18T19:22:08.087Z,28.20
2023-04-18T19:24:37.672Z,28.30
2023-04-18T19:27:07.302Z,41.88
2023-04-18T19:29:38.254Z,27.05
2023-04-18T19:32:08.106Z,31.27
2023-04-18T19:34:37.941Z,30.02
2023-04-18T19:37:08.803Z,34.38
2023-04-18T19:39:38.398Z,28.17
2023-04-18T19:42:08.914Z,30.08
2023-04-18T19:44:38.574Z,30.48
2023-04-18T19:47:08.166Z,32.92
2023-04-18T19:49:38.059Z,35.80
2023-04-18T19:52:07.888Z,35.42
2023-04-18T19:54:37.761Z,29.48
2023-04-18T19:57:07.860Z,33.20
2023-04-18T19:59:37.491Z,27.95
2023-04-18T20:02:07.153Z,34.13
2023-04-18T20:04:37.975Z,31.35
2023-04-18T20:07:07.940Z,31.48
2023-04-18T20:09:38.111Z,32.97
2023-04-18T20:12:07.786Z,35.92
2023-04-18T20:14:37.587Z,34.25
2023-04-18T20:17:07.223Z,33.80
2023-04-18T20:19:37.272Z,30.08
2023-04-18T20:22:07.385Z,32.65
2023-04-18T20:24:36.918Z,39.90
2023-04-18T20:27:06.602Z,38.85
2023-04-18T20:29:36.240Z,31.90
2023-04-18T20:32:05.943Z,37.70
2023-04-18T20:34:35.529Z,36.13
2023-04-18T20:37:08.571Z,35.80
2023-04-18T20:39:39.542Z,29.75
2023-04-18T20:42:09.100Z,32.80
2023-04-18T20:44:39.531Z,27.92
2023-04-18T20:47:09.113Z,31.75
2023-04-18T20:49:39.672Z,40.28
2023-04-18T20:52:15.744Z,31.30
2023-04-18T20:54:45.326Z,33.88
2023-04-18T20:57:14.919Z,40.05
2023-04-18T20:59:44.520Z,25.85
2023-04-18T21:02:14.139Z,32.67
2023-04-18T21:04:44.175Z,26.60
2023-04-18T21:07:13.762Z,38.25
2023-04-18T21:09:43.291Z,28.55
2023-04-18T21:12:12.907Z,32.83
2023-04-18T21:14:42.503Z,35.05
2023-04-18T21:17:12.328Z,32.10
2023-04-18T21:19:41.859Z,35.78
2023-04-18T21:22:12.142Z,34.75
2023-04-18T21:24:42.000Z,29.95
2023-04-18T21:27:12.201Z,35.58
2023-04-18T21:29:42.775Z,27.98
2023-04-18T21:32:12.294Z,23.55
2023-04-18T21:34:41.921Z,31.40
2023-04-18T21:37:11.471Z,29.30
2023-04-18T21:39:41.034Z,26.60
2023-04-18T21:42:11.130Z,28.92
2023-04-18T21:44:40.716Z,24.73
2023-04-18T21:47:10.270Z,21.58
2023-04-18T21:49:39.842Z,19.42
2023-04-18T21:52:09.821Z,15.18
2023-04-18T21:54:39.494Z,19.70
2023-04-18T21:57:09.101Z,19.23
2023-04-18T21:59:38.701Z,22.52
2023-04-18T22:02:08.515Z,22.33
2023-04-18T22:04:39.529Z,23.02
2023-04-18T22:07:09.142Z,21.02
2023-04-18T22:09:38.858Z,23.48
2023-04-18T22:12:08.637Z,19.08
2023-04-18T22:14:38.181Z,20.98
2023-04-18T22:17:07.732Z,25.75
2023-04-18T22:19:37.376Z,23.80
2023-04-18T22:22:07.470Z,22.60
2023-04-18T22:24:37.103Z,22.50
2023-04-18T22:27:06.706Z,24.70
2023-04-18T22:29:36.256Z,22.83
2023-04-18T22:32:05.923Z,23.55
2023-04-18T22:34:35.479Z,22.73
2023-04-18T22:37:05.090Z,19.55
2023-04-18T22:39:34.849Z,17.40
2023-04-18T22:42:04.428Z,16.55
2023-04-18T22:44:33.962Z,16.67
2023-04-18T22:47:04.573Z,16.77
2023-04-18T22:49:35.449Z,17.65
2023-04-18T22:52:05.107Z,14.43
2023-04-18T22:54:34.838Z,17.25
2023-04-18T22:57:04.435Z,14.35
2023-04-18T22:59:34.019Z,14.00
2023-04-18T23:02:03.853Z,18.50
2023-04-18T23:04:34.979Z,15.75
2023-04-18T23:07:04.920Z,21.48
2023-04-18T23:09:35.642Z,19.90
2023-04-18T23:12:05.309Z,17.92
2023-04-18T23:14:35.964Z,17.02
2023-04-18T23:17:05.593Z,23.50
2023-04-18T23:19:35.157Z,18.38
2023-04-18T23:22:04.809Z,15.75
2023-04-18T23:24:34.615Z,18.05
2023-04-18T23:27:04.511Z,18.90
2023-04-18T23:29:38.261Z,16.40
2023-04-18T23:32:08.241Z,20.02
2023-04-18T23:34:37.799Z,19.92
2023-04-18T23:37:07.395Z,17.50
2023-04-18T23:39:37.341Z,21.52
2023-04-18T23:42:07.186Z,15.10
2023-04-18T23:44:36.881Z,18.88
2023-04-18T23:47:06.530Z,19.83
2023-04-18T23:49:36.095Z,20.73
2023-04-18T23:52:05.727Z,19.15
2023-04-18T23:54:35.359Z,20.77
2023-04-18T23:57:04.957Z,22.15
2023-04-18T23:59:34.725Z,14.50
